Time;durP1;ratioP1;P1;durP2;ratioP2;P2;SDS_P1;SDS_P2;PMS_P1;PMS_P2;Temp;Humidity;BMP_temperature;BMP_pressure;BME280_temperature;BME280_humidity;BME280_pressure;Samples;Min_cycle;Max_cycle;Signal;HPM_P1;HPM_P2
2021/03/08 00:01:52;;;;;;;;;;;;;;;10.87;72.76;100240.19;5046007;28;19990;-79
2021/03/08 00:04:19;;;;;;;;;;;;;;;10.95;72.41;100239.59;5044672;28;19937;-67
2021/03/08 00:06:45;;;;;;;;;;;;;;;10.94;72.34;100240.72;5047707;28;19925;-67
2021/03/08 00:09:11;;;;;;;;;;;;;;;11.05;71.81;100241.47;5050561;28;19925;-67
2021/03/08 00:11:37;;;;;;;;;;;;;;;10.98;72.20;100241.81;5046308;28;19932;-68
2021/03/08 00:14:03;;;;;;;;;;;;;;;11.17;71.33;100236.34;5049504;28;19929;-67
2021/03/08 00:16:29;;;;;;;;;;;;;;;11.19;71.19;100225.72;5043128;28;20293;-65
2021/03/08 00:18:56;;;;;;;;;;;;;;;11.29;70.73;100238.78;5046575;28;19925;-66
2021/03/08 00:21:22;;;;;;;;;;;;;;;11.25;70.61;100244.13;5045221;28;19931;-67
2021/03/08 00:23:48;;;;;;;;;;;;;;;11.40;70.18;100245.94;5044030;28;19928;-68
2021/03/08 00:26:14;;;;;;;;;;;;;;;11.51;69.65;100246.66;5035862;28;19931;-67
2021/03/08 00:28:41;;;;;;;;;;;;;;;11.49;69.48;100244.19;5032481;28;19928;-66
2021/03/08 00:31:07;;;;;;;;;;;;;;;11.60;69.17;100242.94;5043740;28;19935;-66
2021/03/08 00:33:33;;;;;;;;;;;;;;;11.76;68.49;100248.34;5050769;28;19935;-70
2021/03/08 00:36:00;;;;;;;;;;;;;;;11.84;68.05;100245.78;5043260;28;20300;-74
2021/03/08 00:38:26;;;;;;;;;;;;;;;11.76;67.92;100238.03;5039112;28;19931;-73
2021/03/08 00:40:52;;;;;;;;;;;;;;;11.75;68.25;100241.94;5044309;28;19968;-72
2021/03/08 00:43:19;;;;;;;;;;;;;;;11.85;67.59;100241.84;5039373;28;19933;-63
2021/03/08 00:45:45;;;;;;;;;;;;;;;11.79;67.65;100236.56;5041976;28;19931;-64
2021/03/08 00:48:11;;;;;;;;;;;;;;;11.68;68.09;100232.22;5043241;28;19935;-63
2021/03/08 00:50:37;;;;;;;;;;;;;;;11.65;68.22;100219.66;5043376;28;19947;-63
2021/03/08 00:53:04;;;;;;;;;;;;;;;11.44;68.94;100226.59;5043107;28;19933;-63
2021/03/08 00:55:30;;;;;;;;;;;;;;;11.55;68.50;100231.78;5039046;28;19925;-71
2021/03/08 00:57:56;;;;;;;;;;;;;;;11.63;68.25;100228.38;5046476;28;19931;-78
2021/03/08 01:00:24;;;;;;;;;;;;;;;11.73;67.92;100235.00;5044775;28;19935;-69
2021/03/08 01:02:51;;;;;;;;;;;;;;;11.73;67.72;100226.59;5042398;28;19931;-72
2021/03/08 01:05:18;;;;;;;;;;;;;;;11.86;67.43;100225.91;5041926;28;19932;-67
2021/03/08 01:07:44;;;;;;;;;;;;;;;11.82;67.51;100236.00;5046528;28;20004;-68
2021/03/08 01:10:14;;;;;;;;;;;;;;;11.94;67.07;100233.66;5045108;28;20359;-69
2021/03/08 01:12:41;;;;;;;;;;;;;;;11.98;66.68;100217.94;5044931;28;19939;-68
2021/03/08 01:15:09;;;;;;;;;;;;;;;11.93;67.14;100222.75;5036325;28;19925;-77
2021/03/08 01:17:35;;;;;;;;;;;;;;;11.89;67.24;100224.47;5038869;28;19925;-68
2021/03/08 01:20:04;;;;;;;;;;;;;;;11.84;67.39;100215.00;5040289;28;20285;-66
2021/03/08 01:22:30;;;;;;;;;;;;;;;11.77;67.45;100216.47;5040077;28;19925;-67
2021/03/08 01:24:58;;;;;;;;;;;;;;;11.77;67.42;100222.06;5045184;28;19972;-69
2021/03/08 01:27:24;;;;;;;;;;;;;;;11.77;67.46;100224.88;5046568;28;19929;-68
2021/03/08 01:29:56;;;;;;;;;;;;;;;11.71;67.64;100229.69;5046162;28;19986;-62
2021/03/08 01:32:23;;;;;;;;;;;;;;;11.68;67.86;100223.84;5043519;28;19947;-63
2021/03/08 01:34:49;;;;;;;;;;;;;;;11.62;67.81;100220.25;5041450;28;20445;-62
2021/03/08 01:37:15;;;;;;;;;;;;;;;11.68;67.81;100219.06;5041767;28;19928;-72
2021/03/08 01:39:41;;;;;;;;;;;;;;;11.90;66.87;100227.00;5043750;28;20377;-68
2021/03/08 01:42:07;;;;;;;;;;;;;;;12.00;66.29;100220.41;5045864;28;20378;-67
2021/03/08 01:44:34;;;;;;;;;;;;;;;12.16;65.83;100223.88;5049935;28;19935;-65
2021/03/08 01:47:00;;;;;;;;;;;;;;;12.21;65.41;100218.22;5042523;28;19928;-64
2021/03/08 01:49:26;;;;;;;;;;;;;;;12.38;64.71;100221.34;5044765;28;19939;-65
2021/03/08 01:51:53;;;;;;;;;;;;;;;12.49;64.36;100217.28;5042721;28;19925;-65
2021/03/08 01:54:19;;;;;;;;;;;;;;;12.13;65.53;100221.66;5045204;28;19935;-68
2021/03/08 01:56:45;;;;;;;;;;;;;;;11.99;65.81;100225.19;5041641;28;19935;-73
2021/03/08 01:59:11;;;;;;;;;;;;;;;11.98;65.77;100223.53;5036517;28;20004;-66
2021/03/08 02:01:37;;;;;;;;;;;;;;;12.01;65.65;100222.09;5044690;28;19931;-66
2021/03/08 02:04:04;;;;;;;;;;;;;;;12.03;65.57;100214.22;5042787;28;19975;-68
2021/03/08 02:06:30;;;;;;;;;;;;;;;12.06;65.38;100222.84;5047949;28;20284;-64
2021/03/08 02:08:56;;;;;;;;;;;;;;;12.06;65.09;100217.25;5042741;28;19946;-67
2021/03/08 02:11:22;;;;;;;;;;;;;;;12.09;64.98;100213.03;5046207;28;19931;-67
2021/03/08 02:13:58;;;;;;;;;;;;;;;12.09;64.62;100213.03;5033972;28;20308;-66
2021/03/08 02:16:40;;;;;;;;;;;;;;;12.08;64.68;100222.56;5040262;28;19925;-66
2021/03/08 02:19:18;;;;;;;;;;;;;;;12.06;64.62;100214.47;5033916;28;19952;-64
2021/03/08 02:22:03;;;;;;;;;;;;;;;12.06;64.33;100214.47;5040306;28;20016;-65
2021/03/08 02:24:41;;;;;;;;;;;;;;;12.03;64.26;100209.50;5039900;28;19932;-64
2021/03/08 02:27:18;;;;;;;;;;;;;;;12.04;63.88;100205.53;5039704;28;20690;-63
2021/03/08 02:29:50;;;;;;;;;;;;;;;12.04;63.96;100205.53;5036888;28;20370;-62
2021/03/08 02:32:18;;;;;;;;;;;;;;;12.04;63.76;100211.16;5044715;28;20019;-62
2021/03/08 02:34:49;;;;;;;;;;;;;;;12.03;63.67;100206.69;5039622;28;20023;-62
2021/03/08 02:37:22;;;;;;;;;;;;;;;12.01;63.56;100208.13;5040902;28;19931;-61
2021/03/08 02:39:51;;;;;;;;;;;;;;;11.95;63.59;100201.72;5044129;28;20432;-63
2021/03/08 02:42:25;;;;;;;;;;;;;;;11.91;63.73;100189.47;5037765;28;20266;-66
2021/03/08 02:44:56;;;;;;;;;;;;;;;11.90;63.40;100199.00;5038660;28;19929;-67
2021/03/08 02:47:23;;;;;;;;;;;;;;;11.91;63.41;100206.25;5038782;28;20019;-68
2021/03/08 02:49:52;;;;;;;;;;;;;;;11.90;63.30;100203.75;5041477;28;20305;-69
2021/03/08 02:52:20;;;;;;;;;;;;;;;11.89;63.35;100197.31;5044959;28;19940;-69
2021/03/08 02:54:49;;;;;;;;;;;;;;;11.83;63.09;100201.31;5016652;28;19932;-63
2021/03/08 02:57:17;;;;;;;;;;;;;;;11.75;63.35;100201.94;5040589;28;19925;-63
2021/03/08 02:59:46;;;;;;;;;;;;;;;11.71;63.05;100196.09;5045820;28;19925;-63
2021/03/08 03:02:12;;;;;;;;;;;;;;;11.62;63.29;100197.88;5038516;28;19925;-64
2021/03/08 03:04:40;;;;;;;;;;;;;;;11.58;63.12;100192.03;5045917;28;20350;-64
2021/03/08 03:07:07;;;;;;;;;;;;;;;11.56;63.05;100187.91;5042611;28;19925;-64
2021/03/08 03:09:34;;;;;;;;;;;;;;;11.56;63.14;100188.72;5049887;28;20686;-64
2021/03/08 03:12:00;;;;;;;;;;;;;;;11.56;63.24;100188.72;5047051;28;20317;-64
2021/03/08 03:14:27;;;;;;;;;;;;;;;11.51;63.18;100191.56;5041232;28;19931;-65
2021/03/08 03:16:56;;;;;;;;;;;;;;;11.42;63.31;100179.38;5037357;28;19931;-65
2021/03/08 03:19:23;;;;;;;;;;;;;;;11.44;62.98;100182.69;5036961;28;19955;-63
2021/03/08 03:21:50;;;;;;;;;;;;;;;11.49;62.86;100184.63;5046237;28;20293;-66
2021/03/08 03:24:16;;;;;;;;;;;;;;;11.48;62.35;100192.16;5039705;28;19925;-67
2021/03/08 03:26:43;;;;;;;;;;;;;;;11.43;62.50;100181.03;5044090;28;20295;-65
2021/03/08 03:29:10;;;;;;;;;;;;;;;11.34;62.57;100180.84;5048414;28;19947;-65
2021/03/08 03:31:40;;;;;;;;;;;;;;;11.29;62.84;100180.91;5049292;28;20374;-63
2021/03/08 03:34:07;;;;;;;;;;;;;;;11.27;62.82;100185.09;5049926;28;20035;-64
2021/03/08 03:36:35;;;;;;;;;;;;;;;11.26;62.60;100180.66;5044508;28;19925;-65
2021/03/08 03:39:03;;;;;;;;;;;;;;;11.24;62.92;100180.94;5046209;28;19925;-64
2021/03/08 03:41:29;;;;;;;;;;;;;;;11.23;62.70;100186.81;5048841;28;20294;-63
2021/03/08 03:43:56;;;;;;;;;;;;;;;11.21;62.81;100178.72;5046285;28;19955;-63
2021/03/08 03:46:22;;;;;;;;;;;;;;;11.21;62.75;100191.88;5039895;28;19925;-69
2021/03/08 03:48:48;;;;;;;;;;;;;;;11.21;62.55;100175.09;5041318;28;19933;-66
2021/03/08 03:51:15;;;;;;;;;;;;;;;11.23;62.63;100184.03;5048725;28;20329;-66
2021/03/08 03:53:41;;;;;;;;;;;;;;;11.25;62.63;100182.63;5044529;28;19987;-65
2021/03/08 03:56:09;;;;;;;;;;;;;;;11.30;62.64;100178.94;5042998;28;20285;-67
2021/03/08 03:58:35;;;;;;;;;;;;;;;11.36;62.54;100181.38;5049988;28;19956;-67
2021/03/08 04:01:03;;;;;;;;;;;;;;;11.42;62.55;100182.16;5045977;28;20377;-69
2021/03/08 04:03:32;;;;;;;;;;;;;;;11.47;62.64;100184.06;5042223;28;20644;-68
2021/03/08 04:06:00;;;;;;;;;;;;;;;11.52;62.46;100192.41;5045952;28;20019;-69
2021/03/08 04:08:27;;;;;;;;;;;;;;;11.56;62.55;100194.31;5038344;28;19924;-69
2021/03/08 04:10:55;;;;;;;;;;;;;;;11.60;62.36;100188.97;5048391;28;20027;-67
2021/03/08 04:13:23;;;;;;;;;;;;;;;11.60;62.55;100183.38;5039082;28;20317;-82
2021/03/08 04:15:49;;;;;;;;;;;;;;;11.60;62.58;100189.78;5049182;28;19951;-78
2021/03/08 04:18:16;;;;;;;;;;;;;;;11.58;62.50;100191.22;5044548;28;19990;-72
2021/03/08 04:20:44;;;;;;;;;;;;;;;11.59;62.79;100188.13;5046075;28;20381;-68
2021/03/08 04:23:11;;;;;;;;;;;;;;;11.60;62.40;100195.38;5044161;28;19937;-67
2021/03/08 04:25:39;;;;;;;;;;;;;;;11.59;62.61;100192.91;5048452;28;19932;-68
2021/03/08 04:28:07;;;;;;;;;;;;;;;11.57;62.62;100193.19;5043889;28;19931;-66
2021/03/08 04:30:33;;;;;;;;;;;;;;;11.60;62.34;100206.56;5046720;28;20304;-65
2021/03/08 04:33:00;;;;;;;;;;;;;;;11.59;62.44;100199.31;5042834;28;19925;-65
2021/03/08 04:35:28;;;;;;;;;;;;;;;11.59;62.32;100199.31;5050229;28;19937;-67
2021/03/08 04:37:57;;;;;;;;;;;;;;;11.63;62.23;100202.38;5041203;28;20322;-65
2021/03/08 04:40:24;;;;;;;;;;;;;;;11.63;62.21;100199.56;5046123;28;20296;-65
2021/03/08 04:42:51;;;;;;;;;;;;;;;11.60;61.92;100195.38;5045317;28;19987;-66
2021/03/08 04:45:20;;;;;;;;;;;;;;;11.56;62.23;100199.91;5049736;28;19925;-64
2021/03/08 04:47:47;;;;;;;;;;;;;;;11.53;62.25;100205.25;5041464;28;19925;-63
2021/03/08 04:50:14;;;;;;;;;;;;;;;11.49;62.20;100207.00;5041213;28;19936;-65
2021/03/08 04:52:50;;;;;;;;;;;;;;;11.45;62.08;100206.72;5019605;23;19956;-72
2021/03/08 04:55:16;;;;;;;;;;;;;;;11.43;62.09;100209.00;4991415;28;19932;-71
2021/03/08 04:57:43;;;;;;;;;;;;;;;11.42;62.33;100204.53;4985771;28;19933;-74
2021/03/08 05:00:10;;;;;;;;;;;;;;;11.43;62.12;100203.41;4991330;28;20359;-81
2021/03/08 05:02:39;;;;;;;;;;;;;;;11.44;62.05;100207.84;4991373;28;20668;-71
2021/03/08 05:05:07;;;;;;;;;;;;;;;11.43;62.04;100203.41;4988346;28;19973;-74
2021/03/08 05:07:35;;;;;;;;;;;;;;;11.42;62.04;100200.88;4990122;28;19925;-75
2021/03/08 05:10:01;;;;;;;;;;;;;;;11.36;61.92;100202.91;4986976;28;19940;-75
2021/03/08 05:12:30;;;;;;;;;;;;;;;11.35;61.93;100206.81;4989271;28;19969;-67
2021/03/08 05:14:56;;;;;;;;;;;;;;;11.34;62.22;100203.19;4990027;28;19926;-67
2021/03/08 05:17:23;;;;;;;;;;;;;;;11.34;61.96;100205.16;4990455;28;19926;-67
2021/03/08 05:19:50;;;;;;;;;;;;;;;11.33;62.04;100200.72;4987786;28;20383;-67
2021/03/08 05:22:17;;;;;;;;;;;;;;;11.32;62.16;100207.44;4991299;28;20345;-67
2021/03/08 05:24:47;;;;;;;;;;;;;;;11.28;62.03;100209.13;4987439;28;19937;-67
2021/03/08 05:27:13;;;;;;;;;;;;;;;11.27;62.15;100204.66;4987583;28;19926;-67
2021/03/08 05:29:40;;;;;;;;;;;;;;;11.25;62.00;100202.19;4990467;28;19984;-67
2021/03/08 05:32:09;;;;;;;;;;;;;;;11.25;62.03;100204.16;4989251;28;19929;-67
2021/03/08 05:34:45;;;;;;;;;;;;;;;11.20;62.00;100206.97;4989820;28;20240;-67
2021/03/08 05:37:17;;;;;;;;;;;;;;;11.21;61.81;100205.84;4988227;28;19936;-65
2021/03/08 05:39:44;;;;;;;;;;;;;;;11.24;61.61;100199.66;4990448;28;19926;-65
2021/03/08 05:42:11;;;;;;;;;;;;;;;11.23;61.66;100207.22;4989406;28;20466;-67
2021/03/08 05:44:44;;;;;;;;;;;;;;;11.23;61.43;100214.78;4989626;28;19972;-66
2021/03/08 05:47:28;;;;;;;;;;;;;;;11.23;61.33;100218.41;4991042;28;19926;-67
2021/03/08 05:50:17;;;;;;;;;;;;;;;11.26;61.43;100219.78;4986762;28;19925;-67
2021/03/08 05:52:46;;;;;;;;;;;;;;;11.26;60.97;100220.63;4987592;28;19926;-67
2021/03/08 05:55:19;;;;;;;;;;;;;;;11.15;61.70;100222.66;4990370;28;19945;-67
2021/03/08 05:57:54;;;;;;;;;;;;;;;11.11;62.16;100216.00;4988619;28;19926;-67
2021/03/08 06:00:26;;;;;;;;;;;;;;;11.09;62.37;100223.84;4989469;28;19945;-67
2021/03/08 06:02:52;;;;;;;;;;;;;;;11.08;62.58;100227.75;4989438;28;20021;-66
2021/03/08 06:05:25;;;;;;;;;;;;;;;11.08;62.65;100227.75;4986735;28;20383;-66
2021/03/08 06:07:54;;;;;;;;;;;;;;;11.11;62.32;100235.56;4989185;28;19933;-67
2021/03/08 06:10:24;;;;;;;;;;;;;;;11.16;62.15;100237.47;4992186;28;20345;-67
2021/03/08 06:12:54;;;;;;;;;;;;;;;11.19;62.07;100239.69;4989295;28;20382;-67
2021/03/08 06:15:21;;;;;;;;;;;;;;;11.09;62.17;100242.56;4987233;28;19930;-72
2021/03/08 06:17:49;;;;;;;;;;;;;;;10.91;62.21;100246.91;4988651;28;19956;-72
2021/03/08 06:20:17;;;;;;;;;;;;;;;10.77;62.46;100243.91;4986565;28;20450;-72
2021/03/08 06:22:44;;;;;;;;;;;;;;;10.67;62.53;100250.41;4989458;28;20405;-70
2021/03/08 06:25:11;;;;;;;;;;;;;;;10.65;62.70;100247.03;4986550;28;19936;-71
2021/03/08 06:27:38;;;;;;;;;;;;;;;10.64;62.65;100250.97;4989212;28;19925;-71
2021/03/08 06:30:04;;;;;;;;;;;;;;;10.63;62.39;100251.25;4988837;28;19941;-74
2021/03/08 06:32:30;;;;;;;;;;;;;;;10.57;62.35;100250.47;4987131;28;19936;-64
2021/03/08 06:34:57;;;;;;;;;;;;;;;10.53;62.37;100257.75;4988761;28;20532;-68
2021/03/08 06:37:25;;;;;;;;;;;;;;;10.57;62.00;100255.22;4989353;28;19980;-69
2021/03/08 06:39:52;;;;;;;;;;;;;;;10.60;61.86;100255.47;4988077;28;20772;-71
2021/03/08 06:42:18;;;;;;;;;;;;;;;10.59;61.91;100264.94;4989716;28;19949;-72
2021/03/08 06:44:44;;;;;;;;;;;;;;;10.61;61.97;100257.13;4987871;28;19936;-67
2021/03/08 06:47:11;;;;;;;;;;;;;;;10.65;61.49;100269.38;4984862;28;19930;-71
2021/03/08 06:49:37;;;;;;;;;;;;;;;10.67;61.85;100263.53;4987572;28;19934;-68
2021/03/08 06:52:05;;;;;;;;;;;;;;;10.72;61.72;100265.44;4988220;28;19934;-68
2021/03/08 06:54:32;;;;;;;;;;;;;;;10.78;61.65;100278.28;4987463;28;20304;-69
2021/03/08 06:56:58;;;;;;;;;;;;;;;10.83;61.56;100281.00;4990039;28;19933;-68
2021/03/08 06:59:24;;;;;;;;;;;;;;;10.87;61.14;100277.38;4984978;28;20336;-76
2021/03/08 07:01:52;;;;;;;;;;;;;;;10.93;61.01;100275.34;4987506;28;19926;-73
2021/03/08 07:04:21;;;;;;;;;;;;;;;10.94;60.77;100277.06;4987549;28;19932;-67
2021/03/08 07:07:00;;;;;;;;;;;;;;;10.97;60.89;100276.44;4991758;28;19929;-76
2021/03/08 07:09:26;;;;;;;;;;;;;;;11.02;60.87;100276.41;4986930;28;19934;-66
2021/03/08 07:12:09;;;;;;;;;;;;;;;11.04;60.64;100279.78;4990597;28;19948;-65
2021/03/08 07:14:37;;;;;;;;;;;;;;;11.00;60.75;100275.88;4991826;28;20013;-66
2021/03/08 07:17:23;;;;;;;;;;;;;;;10.91;61.02;100283.22;4989242;28;19936;-65
2021/03/08 07:19:53;;;;;;;;;;;;;;;10.65;61.57;100279.72;4979875;28;20486;-65
2021/03/08 07:22:38;;;;;;;;;;;;;;;10.58;62.11;100282.00;4990843;28;20275;-67
2021/03/08 07:25:06;;;;;;;;;;;;;;;10.64;61.98;100287.28;4986379;28;20370;-65
2021/03/08 07:27:58;;;;;;;;;;;;;;;10.71;61.89;100292.53;4985646;28;19945;-67
2021/03/08 07:30:31;;;;;;;;;;;;;;;10.75;61.98;100290.00;4986001;28;19932;-66
2021/03/08 07:33:03;;;;;;;;;;;;;;;10.79;62.03;100296.69;4991355;28;19967;-65
2021/03/08 07:35:34;;;;;;;;;;;;;;;10.77;62.22;100298.91;4986848;28;19932;-67
2021/03/08 07:38:01;;;;;;;;;;;;;;;10.83;62.38;100297.78;4985798;28;19930;-65
2021/03/08 07:40:27;;;;;;;;;;;;;;;10.90;62.71;100301.06;4986903;28;19933;-66
2021/03/08 07:42:53;;;;;;;;;;;;;;;10.98;62.93;100302.44;4985002;28;20397;-66
2021/03/08 07:45:22;;;;;;;;;;;;;;;11.03;63.02;100314.41;4991943;28;19933;-65
2021/03/08 07:48:09;;;;;;;;;;;;;;;11.03;63.27;100314.41;4991318;28;19926;-67
2021/03/08 07:50:35;;;;;;;;;;;;;;;10.97;63.48;100312.75;4988089;28;20082;-65
2021/03/08 07:53:02;;;;;;;;;;;;;;;10.95;63.77;100320.63;4979151;28;19960;-67
2021/03/08 07:55:35;;;;;;;;;;;;;;;10.95;63.99;100320.63;4984623;28;19930;-66
2021/03/08 07:58:03;;;;;;;;;;;;;;;11.03;63.94;100333.97;4987384;28;19930;-63
2021/03/08 08:00:30;;;;;;;;;;;;;;;11.09;63.85;100318.84;4983566;28;20288;-64
2021/03/08 08:02:59;;;;;;;;;;;;;;;11.13;63.63;100325.53;4989100;28;19933;-65
2021/03/08 08:05:26;;;;;;;;;;;;;;;11.14;63.77;100332.81;4987568;28;19930;-68
2021/03/08 08:07:55;;;;;;;;;;;;;;;11.17;63.61;100336.13;4986865;28;20288;-65
2021/03/08 08:10:22;;;;;;;;;;;;;;;11.20;63.82;100336.38;4989116;28;19932;-64
2021/03/08 08:12:50;;;;;;;;;;;;;;;11.25;63.60;100344.75;4985234;28;19926;-65
2021/03/08 08:15:17;;;;;;;;;;;;;;;11.32;63.50;100344.41;4987472;28;20298;-64
2021/03/08 08:17:44;;;;;;;;;;;;;;;11.38;63.62;100346.03;4985003;28;20020;-65
2021/03/08 08:20:12;;;;;;;;;;;;;;;11.41;63.73;100353.00;4989830;28;19937;-67
2021/03/08 08:22:43;;;;;;;;;;;;;;;11.45;63.46;100349.31;4986694;28;19926;-65
2021/03/08 08:25:11;;;;;;;;;;;;;;;11.48;63.58;100353.50;4986287;28;20284;-67
2021/03/08 08:27:38;;;;;;;;;;;;;;;11.54;63.72;100355.13;4986073;28;19925;-66
2021/03/08 08:30:05;;;;;;;;;;;;;;;11.62;63.70;100354.50;4991812;28;19926;-66
2021/03/08 08:32:48;;;;;;;;;;;;;;;12.54;62.17;100357.22;4987851;28;19936;-65
2021/03/08 08:35:26;;;;;;;;;;;;;;;13.73;59.45;100358.06;4985176;28;20340;-66
2021/03/08 08:38:04;;;;;;;;;;;;;;;14.25;58.79;100355.19;4986698;28;19925;-65
2021/03/08 08:40:31;;;;;;;;;;;;;;;14.57;58.51;100359.09;4983087;28;19933;-66
2021/03/08 08:43:15;;;;;;;;;;;;;;;15.07;58.07;100357.16;4988770;28;19940;-65
2021/03/08 08:45:49;;;;;;;;;;;;;;;15.59;57.68;100371.72;4985424;28;20349;-67
2021/03/08 08:48:16;;;;;;;;;;;;;;;16.09;57.15;100365.13;4984508;28;19942;-67
2021/03/08 08:50:44;;;;;;;;;;;;;;;16.55;56.72;100378.81;4986248;28;20060;-66
2021/03/08 08:53:10;;;;;;;;;;;;;;;16.97;56.49;100375.66;4989990;28;19926;-67
2021/03/08 08:55:36;;;;;;;;;;;;;;;17.43;56.13;100375.06;4991248;28;19934;-66
2021/03/08 08:58:21;;;;;;;;;;;;;;;17.96;55.42;100384.41;4990564;28;19934;-67
2021/03/08 09:03:56;;;;;;;;;;;;;;;19.02;53.90;100380.91;4984627;28;20128;-67
2021/03/08 09:06:41;;;;;;;;;;;;;;;19.23;53.46;100383.75;4989482;28;19930;-67
2021/03/08 09:09:08;;;;;;;;;;;;;;;19.48;53.30;100379.91;4987110;28;19929;-68
2021/03/08 09:11:41;;;;;;;;;;;;;;;19.84;52.17;100387.81;4985498;28;19927;-66
2021/03/08 09:14:27;;;;;;;;;;;;;;;20.18;51.42;100390.66;4988662;28;20793;-66
2021/03/08 09:17:11;;;;;;;;;;;;;;;20.19;51.80;100397.97;4984716;28;19948;-66
2021/03/08 09:19:39;;;;;;;;;;;;;;;20.18;52.03;100391.47;4988899;28;20374;-67
2021/03/08 09:22:20;;;;;;;;;;;;;;;20.07;51.89;100395.94;4989005;28;19948;-67
2021/03/08 09:24:47;;;;;;;;;;;;;;;19.77;52.31;100396.03;4985533;28;19934;-67
2021/03/08 09:27:32;;;;;;;;;;;;;;;19.59;52.19;100401.00;4986927;28;20383;-65
2021/03/08 09:30:06;;;;;;;;;;;;;;;19.10;52.99;100397.81;4989103;28;19933;-66
2021/03/08 09:32:32;;;;;;;;;;;;;;;18.65;52.82;100406.81;4986768;28;19930;-66
2021/03/08 09:35:00;;;;;;;;;;;;;;;18.24;53.47;100398.97;4984033;28;19926;-66
2021/03/08 09:37:27;;;;;;;;;;;;;;;17.93;53.43;100407.66;4986024;28;20014;-67
2021/03/08 09:39:54;;;;;;;;;;;;;;;17.51;53.56;100410.94;4987155;28;19930;-66
2021/03/08 09:42:21;;;;;;;;;;;;;;;17.13;53.70;100410.72;4988254;28;20468;-66
2021/03/08 09:44:48;;;;;;;;;;;;;;;16.86;53.68;100411.81;4987926;28;19965;-66
2021/03/08 09:47:14;;;;;;;;;;;;;;;16.59;54.13;100415.63;4988802;28;19984;-66
2021/03/08 09:49:50;;;;;;;;;;;;;;;16.42;53.82;100421.19;4987551;28;19945;-64
2021/03/08 09:52:30;;;;;;;;;;;;;;;16.30;53.83;100422.59;4985233;28;19933;-64
2021/03/08 09:54:56;;;;;;;;;;;;;;;15.99;53.73;100435.81;4989338;28;20342;-64
2021/03/08 09:57:36;;;;;;;;;;;;;;;15.72;53.69;100429.13;4985658;28;19940;-64
2021/03/08 10:00:13;;;;;;;;;;;;;;;15.63;53.71;100431.84;4986835;28;19925;-65
2021/03/08 10:02:39;;;;;;;;;;;;;;;15.63;53.30;100431.03;4981546;28;20379;-64
2021/03/08 10:05:07;;;;;;;;;;;;;;;15.67;53.08;100434.06;4982197;28;19930;-67
2021/03/08 10:07:34;;;;;;;;;;;;;;;15.74;53.31;100438.09;4990110;28;20376;-66
2021/03/08 10:10:10;;;;;;;;;;;;;;;15.98;53.00;100436.97;4986889;28;19929;-63
2021/03/08 10:12:37;;;;;;;;;;;;;;;16.49;52.50;100435.66;4985284;28;19930;-66
2021/03/08 10:15:06;;;;;;;;;;;;;;;16.34;52.28;100389.81;4985371;28;20050;-64
2021/03/08 10:17:32;;;;;;;;;;;;;;;16.67;52.29;100433.75;4987857;28;19973;-64
2021/03/08 10:19:59;;;;;;;;;;;;;;;16.63;52.18;100439.19;4988532;28;20003;-66
2021/03/08 10:22:38;;;;;;;;;;;;;;;16.56;52.28;100442.47;4985372;28;19930;-65
2021/03/08 10:25:18;;;;;;;;;;;;;;;16.55;51.90;100434.38;4986010;28;19940;-61
2021/03/08 10:27:44;;;;;;;;;;;;;;;16.46;51.81;100436.28;4979361;28;19961;-62
2021/03/08 10:30:12;;;;;;;;;;;;;;;16.37;51.89;100439.03;4984198;28;22082;-62
2021/03/08 10:32:39;;;;;;;;;;;;;;;16.42;51.65;100440.91;4982620;28;19933;-63
2021/03/08 10:35:06;;;;;;;;;;;;;;;16.47;51.66;100450.06;4981918;28;19941;-63
2021/03/08 10:37:36;;;;;;;;;;;;;;;16.57;51.49;100455.41;4982070;28;19926;-64
2021/03/08 10:40:02;;;;;;;;;;;;;;;16.63;51.24;100452.47;4986514;28;19926;-62
2021/03/08 10:42:29;;;;;;;;;;;;;;;16.72;51.16;100450.53;4987073;28;19933;-63
2021/03/08 10:44:55;;;;;;;;;;;;;;;16.80;50.88;100453.41;4986521;28;20338;-63
2021/03/08 10:47:23;;;;;;;;;;;;;;;16.96;50.71;100455.81;4983583;28;20386;-63
2021/03/08 10:49:54;;;;;;;;;;;;;;;17.10;50.90;100455.69;4986610;28;19951;-63
2021/03/08 10:52:21;;;;;;;;;;;;;;;17.30;50.42;100455.09;4984414;28;19937;-62
2021/03/08 10:54:47;;;;;;;;;;;;;;;17.34;50.69;100447.63;4986669;28;19953;-62
2021/03/08 10:57:14;;;;;;;;;;;;;;;17.57;50.08;100448.31;4982223;28;20283;-61
2021/03/08 10:59:47;;;;;;;;;;;;;;;17.59;50.05;100454.47;4981468;28;19930;-65
2021/03/08 11:02:16;;;;;;;;;;;;;;;17.54;50.18;100457.47;4983653;28;19926;-63
2021/03/08 11:04:48;;;;;;;;;;;;;;;17.84;50.16;100449.19;4988919;28;19941;-67
2021/03/08 11:07:31;;;;;;;;;;;;;;;18.20;49.88;100441.19;4984871;28;19926;-64
2021/03/08 11:09:57;;;;;;;;;;;;;;;18.34;49.46;100445.84;4983009;28;20035;-63
2021/03/08 11:12:24;;;;;;;;;;;;;;;18.79;49.82;100446.22;4981467;28;19929;-64
2021/03/08 11:14:54;;;;;;;;;;;;;;;19.11;48.96;100441.09;4985822;28;20405;-62
2021/03/08 11:17:31;;;;;;;;;;;;;;;19.35;48.61;100446.13;4983561;28;19929;-65
2021/03/08 11:20:15;;;;;;;;;;;;;;;19.81;48.74;100439.50;4985785;28;19930;-64
2021/03/08 11:22:50;;;;;;;;;;;;;;;20.54;48.09;100439.00;4984506;28;20386;-64
2021/03/08 11:25:32;;;;;;;;;;;;;;;20.55;47.62;100440.66;4982740;28;20500;-64
2021/03/08 11:28:18;;;;;;;;;;;;;;;20.32;47.49;100436.53;4982860;28;19929;-66
2021/03/08 11:30:49;;;;;;;;;;;;;;;20.71;47.38;100429.44;4985555;28;20012;-62
2021/03/08 11:33:17;;;;;;;;;;;;;;;20.83;46.80;100442.84;4984977;28;19934;-63
2021/03/08 11:35:48;;;;;;;;;;;;;;;21.12;46.67;100440.97;4982212;28;19964;-64
2021/03/08 11:38:15;;;;;;;;;;;;;;;21.48;46.15;100431.63;4979840;28;20409;-65
2021/03/08 11:40:43;;;;;;;;;;;;;;;21.95;45.44;100440.41;4984054;28;20049;-63
2021/03/08 11:43:09;;;;;;;;;;;;;;;22.46;45.05;100437.00;4980467;28;20027;-64
2021/03/08 11:45:36;;;;;;;;;;;;;;;23.22;44.67;100437.81;4980887;28;19930;-68
2021/03/08 11:48:02;;;;;;;;;;;;;;;23.70;43.53;100430.03;4983952;28;19971;-65
2021/03/08 11:50:30;;;;;;;;;;;;;;;23.76;43.03;100436.25;4986912;28;20004;-63
2021/03/08 11:52:57;;;;;;;;;;;;;;;24.44;42.61;100432.00;4988619;28;19994;-64
2021/03/08 11:55:23;;;;;;;;;;;;;;;25.31;42.12;100436.06;4987223;28;20105;-61
2021/03/08 11:57:50;;;;;;;;;;;;;;;26.15;41.29;100440.56;4989130;28;20124;-63
2021/03/08 12:00:18;;;;;;;;;;;;;;;26.97;39.86;100440.66;4985665;28;19932;-63
2021/03/08 12:02:44;;;;;;;;;;;;;;;27.61;38.88;100438.31;4988492;28;20025;-63
2021/03/08 12:05:10;;;;;;;;;;;;;;;27.84;38.44;100434.41;4986501;28;20283;-62
2021/03/08 12:07:37;;;;;;;;;;;;;;;28.17;37.90;100427.59;4980840;28;19926;-63
2021/03/08 12:10:04;;;;;;;;;;;;;;;28.77;36.95;100420.41;4985329;28;20072;-62
2021/03/08 12:12:31;;;;;;;;;;;;;;;29.40;35.55;100417.97;4984544;28;19926;-64
2021/03/08 12:15:01;;;;;;;;;;;;;;;29.91;35.30;100411.72;4982865;28;20420;-63
2021/03/08 12:17:27;;;;;;;;;;;;;;;30.34;34.33;100414.44;4981800;28;19934;-63
2021/03/08 12:19:55;;;;;;;;;;;;;;;30.79;33.99;100417.50;4984780;28;19940;-63
2021/03/08 12:22:21;;;;;;;;;;;;;;;31.22;33.63;100407.69;4987855;28;19933;-65
2021/03/08 12:24:48;;;;;;;;;;;;;;;31.63;32.56;100408.53;4984350;28;19937;-63
2021/03/08 12:27:14;;;;;;;;;;;;;;;31.95;32.16;100409.47;4983574;28;21348;-64
2021/03/08 12:29:40;;;;;;;;;;;;;;;32.07;31.32;100397.34;4984741;28;19930;-62
2021/03/08 12:32:07;;;;;;;;;;;;;;;32.29;31.31;100395.81;4983015;28;19929;-64
2021/03/08 12:34:33;;;;;;;;;;;;;;;32.53;31.38;100398.81;4984664;28;19940;-66
2021/03/08 12:37:00;;;;;;;;;;;;;;;32.87;30.40;100392.09;4984286;28;19930;-64
2021/03/08 12:39:27;;;;;;;;;;;;;;;32.84;30.58;100399.56;4984562;28;20306;-63
2021/03/08 12:41:53;;;;;;;;;;;;;;;33.15;30.17;100393.72;4986918;28;19948;-62
2021/03/08 12:44:20;;;;;;;;;;;;;;;33.41;29.60;100392.03;4986354;28;20275;-65
2021/03/08 12:46:47;;;;;;;;;;;;;;;33.52;29.57;100388.97;4987702;28;19930;-64
2021/03/08 12:49:13;;;;;;;;;;;;;;;33.65;29.57;100390.75;4989895;28;20374;-64